createdAt,value
2022-09-14T00:00:14.993Z,100.00
2022-09-14T00:02:43.780Z,100.00
2022-09-14T00:05:12.715Z,100.00
2022-09-14T00:07:41.447Z,100.00
2022-09-14T00:10:11.025Z,100.00
2022-09-14T00:12:39.827Z,100.00
2022-09-14T00:15:09.635Z,100.00
2022-09-14T00:17:39.918Z,100.00
2022-09-14T00:20:09.552Z,100.00
2022-09-14T00:22:38.276Z,100.00
2022-09-14T00:25:07.991Z,100.00
2022-09-14T00:27:36.821Z,100.00
2022-09-14T00:30:06.479Z,100.00
2022-09-14T00:32:35.238Z,100.00
2022-09-14T00:35:05.718Z,100.00
2022-09-14T00:37:34.608Z,100.00
2022-09-14T00:40:04.007Z,100.00
2022-09-14T00:42:33.454Z,100.00
2022-09-14T00:45:17.450Z,100.00
2022-09-14T00:47:48.594Z,100.00
2022-09-14T00:50:19.450Z,100.00
2022-09-14T00:52:51.873Z,100.00
2022-09-14T00:55:24.319Z,100.00
2022-09-14T00:57:55.632Z,100.00
2022-09-14T01:00:29.478Z,100.00
2022-09-14T01:02:58.892Z,100.00
2022-09-14T01:05:43.363Z,100.00
2022-09-14T01:08:39.145Z,100.00
2022-09-14T01:11:21.550Z,100.00
2022-09-14T01:14:00.229Z,100.00
2022-09-14T01:16:38.860Z,100.00
2022-09-14T01:19:16.825Z,100.00
2022-09-14T01:21:48.425Z,100.00
2022-09-14T01:24:27.072Z,100.00
2022-09-14T01:27:33.352Z,100.00
2022-09-14T01:30:09.741Z,100.00
2022-09-14T01:32:44.549Z,100.00
2022-09-14T01:35:18.923Z,100.00
2022-09-14T01:37:52.282Z,100.00
2022-09-14T01:40:26.243Z,100.00
2022-09-14T01:43:00.287Z,100.00
2022-09-14T01:45:30.345Z,100.00
2022-09-14T01:48:04.217Z,100.00
2022-09-14T01:50:38.291Z,100.00
2022-09-14T01:53:11.249Z,100.00
2022-09-14T01:55:45.745Z,100.00
2022-09-14T01:58:20.108Z,100.00
2022-09-14T02:00:52.172Z,100.00
2022-09-14T02:03:26.950Z,100.00
2022-09-14T02:06:00.924Z,100.00
2022-09-14T02:08:31.917Z,100.00
2022-09-14T02:11:01.240Z,100.00
2022-09-14T02:13:31.590Z,100.00
2022-09-14T02:16:00.446Z,100.00
2022-09-14T02:18:29.629Z,100.00
2022-09-14T02:21:03.884Z,100.00
2022-09-14T02:23:33.520Z,100.00
2022-09-14T02:26:02.434Z,100.00
2022-09-14T02:28:32.786Z,100.00
2022-09-14T02:31:12.683Z,100.00
2022-09-14T02:33:49.645Z,100.00
2022-09-14T02:36:26.937Z,100.00
2022-09-14T02:39:02.998Z,100.00
2022-09-14T02:41:43.465Z,100.00
2022-09-14T02:44:21.200Z,100.00
2022-09-14T02:46:59.989Z,100.00
2022-09-14T02:49:34.824Z,100.00
2022-09-14T02:52:12.636Z,100.00
2022-09-14T02:54:47.908Z,100.00
2022-09-14T02:57:17.287Z,100.00
2022-09-14T02:59:47.384Z,100.00
2022-09-14T03:02:16.286Z,100.00
2022-09-14T03:04:45.197Z,100.00
2022-09-14T03:07:13.917Z,100.00
2022-09-14T03:09:42.658Z,100.00
2022-09-14T03:12:11.435Z,100.00
2022-09-14T03:14:40.200Z,100.00
2022-09-14T03:17:10.238Z,100.00
2022-09-14T03:19:41.303Z,100.00
2022-09-14T03:22:10.085Z,100.00
2022-09-14T03:24:38.926Z,100.00
2022-09-14T03:27:07.706Z,100.00
2022-09-14T03:29:36.474Z,100.00
2022-09-14T03:32:05.414Z,100.00
2022-09-14T03:34:35.503Z,100.00
2022-09-14T03:37:04.293Z,100.00
2022-09-14T03:39:33.091Z,100.00
2022-09-14T03:42:01.877Z,100.00
2022-09-14T03:44:30.642Z,100.00
2022-09-14T03:46:59.368Z,100.00
2022-09-14T03:49:28.146Z,100.00
2022-09-14T03:51:59.925Z,100.00
2022-09-14T03:54:28.813Z,100.00
2022-09-14T03:56:57.609Z,100.00
2022-09-14T03:59:26.754Z,100.00
2022-09-14T04:01:55.534Z,100.00
2022-09-14T04:04:24.453Z,100.00
2022-09-14T04:06:53.167Z,100.00
2022-09-14T04:09:23.296Z,100.00
2022-09-14T04:11:52.094Z,100.00
2022-09-14T04:14:21.043Z,100.00
2022-09-14T04:16:49.722Z,100.00
2022-09-14T04:19:18.683Z,100.00
2022-09-14T04:21:47.443Z,100.00
2022-09-14T04:24:16.680Z,100.00
2022-09-14T04:26:47.687Z,100.00
2022-09-14T04:29:16.410Z,100.00
2022-09-14T04:31:45.252Z,100.00
2022-09-14T04:34:14.903Z,100.00
2022-09-14T04:36:43.897Z,100.00
2022-09-14T04:39:15.350Z,100.00
2022-09-14T04:41:44.126Z,100.00
2022-09-14T04:44:14.614Z,100.00
2022-09-14T04:46:46.936Z,100.00
2022-09-14T04:49:16.765Z,100.00
2022-09-14T04:51:46.444Z,100.00
2022-09-14T04:54:17.432Z,100.00
2022-09-14T04:56:46.347Z,100.00
2022-09-14T04:59:16.684Z,100.00
2022-09-14T05:01:47.781Z,100.00
2022-09-14T05:04:17.068Z,100.00
2022-09-14T05:06:45.954Z,100.00
2022-09-14T05:09:16.643Z,100.00
2022-09-14T05:11:46.119Z,100.00
2022-09-14T05:14:16.518Z,100.00
2022-09-14T05:16:46.638Z,100.00
2022-09-14T05:19:18.182Z,100.00
2022-09-14T05:21:47.388Z,100.00
2022-09-14T05:24:17.667Z,100.00
2022-09-14T05:26:47.560Z,100.00
2022-09-14T05:29:20.206Z,100.00
2022-09-14T05:31:49.296Z,100.00
2022-09-14T05:34:18.420Z,100.00
2022-09-14T05:36:47.130Z,95.77
2022-09-14T05:39:19.764Z,94.26
2022-09-14T05:41:51.435Z,92.46
2022-09-14T05:44:21.635Z,89.95
2022-09-14T05:46:50.643Z,88.85
2022-09-14T05:49:19.557Z,85.57
2022-09-14T05:51:48.424Z,83.74
2022-09-14T05:54:17.167Z,82.29
2022-09-14T05:56:46.314Z,81.03
2022-09-14T05:59:15.167Z,79.86
2022-09-14T06:01:45.538Z,79.83
2022-09-14T06:04:14.369Z,79.77
2022-09-14T06:06:52.267Z,81.58
2022-09-14T06:09:33.320Z,80.87
2022-09-14T06:12:02.295Z,80.60
2022-09-14T06:14:31.036Z,82.40
2022-09-14T06:17:01.543Z,81.70
2022-09-14T06:19:30.157Z,80.78
2022-09-14T06:21:58.762Z,79.33
2022-09-14T06:24:27.505Z,79.88
2022-09-14T06:26:56.057Z,80.33
2022-09-14T06:29:24.719Z,80.83
2022-09-14T06:31:55.402Z,81.15
2022-09-14T06:34:25.772Z,79.84
2022-09-14T06:36:54.518Z,82.67
2022-09-14T06:39:23.292Z,81.75
2022-09-14T06:41:52.714Z,83.90
2022-09-14T06:44:21.222Z,83.81
2022-09-14T06:46:50.375Z,86.63
2022-09-14T06:49:23.152Z,91.75
2022-09-14T06:51:56.207Z,86.76
2022-09-14T06:54:25.130Z,90.43
2022-09-14T06:56:53.983Z,90.03
2022-09-14T06:59:22.606Z,87.26
2022-09-14T07:01:51.335Z,91.53
2022-09-14T07:04:20.509Z,88.44
2022-09-14T07:06:51.060Z,90.22
2022-09-14T07:09:21.711Z,88.35
2022-09-14T07:11:50.440Z,84.78
2022-09-14T07:14:20.355Z,88.53
2022-09-14T07:16:49.259Z,87.19
2022-09-14T07:19:18.320Z,84.47
2022-09-14T07:21:48.284Z,85.37
2022-09-14T07:24:17.219Z,86.90
2022-09-14T07:26:47.419Z,86.46
2022-09-14T07:29:17.840Z,88.41
2022-09-14T07:31:48.448Z,88.21
2022-09-14T07:34:17.917Z,87.36
2022-09-14T07:36:46.881Z,86.23
2022-09-14T07:39:17.357Z,86.52
2022-09-14T07:41:49.108Z,89.25
2022-09-14T07:44:19.357Z,86.55
2022-09-14T07:46:48.267Z,84.98
2022-09-14T07:49:17.988Z,84.39
2022-09-14T07:51:47.049Z,87.79
2022-09-14T07:54:17.774Z,85.58
2022-09-14T07:56:49.540Z,85.18
2022-09-14T07:59:38.712Z,82.42
2022-09-14T08:02:08.782Z,83.59
2022-09-14T08:04:39.514Z,82.04
2022-09-14T08:07:08.635Z,81.01
2022-09-14T08:09:37.449Z,81.91
2022-09-14T08:12:07.702Z,81.57
2022-09-14T08:14:37.117Z,79.25
2022-09-14T08:17:05.866Z,78.48
2022-09-14T08:19:34.632Z,80.26
2022-09-14T08:22:03.450Z,83.53
2022-09-14T08:24:33.622Z,78.67
2022-09-14T08:27:02.371Z,79.59
2022-09-14T08:29:32.602Z,79.17
2022-09-14T08:32:01.392Z,77.94
2022-09-14T08:34:30.243Z,81.16
2022-09-14T08:36:58.957Z,82.44
2022-09-14T08:39:27.659Z,80.14
2022-09-14T08:41:58.682Z,82.19
2022-09-14T08:44:30.123Z,75.16
2022-09-14T08:47:06.079Z,75.32
2022-09-14T08:49:46.322Z,80.27
2022-09-14T08:52:23.022Z,75.17
2022-09-14T08:54:55.768Z,75.91
2022-09-14T08:57:30.926Z,72.54
2022-09-14T09:00:08.094Z,73.15
2022-09-14T09:03:08.377Z,69.82
2022-09-14T09:05:41.770Z,73.03
2022-09-14T09:08:19.812Z,71.69
2022-09-14T09:10:49.503Z,74.17
2022-09-14T09:13:22.250Z,74.54
2022-09-14T09:15:54.732Z,71.90
2022-09-14T09:18:33.985Z,71.45
2022-09-14T09:21:07.885Z,69.65
2022-09-14T09:23:37.274Z,74.02
2022-09-14T09:26:11.509Z,67.26
2022-09-14T09:28:45.777Z,72.52
2022-09-14T09:31:16.300Z,69.04
2022-09-14T09:34:06.910Z,65.49
2022-09-14T09:36:40.882Z,66.58
2022-09-14T09:39:10.023Z,70.45
2022-09-14T09:41:46.463Z,69.06
2022-09-14T09:44:15.672Z,70.50
2022-09-14T09:46:50.152Z,69.21
2022-09-14T09:49:24.224Z,67.27
2022-09-14T09:51:54.594Z,64.29
2022-09-14T09:54:28.147Z,64.93
2022-09-14T09:56:59.160Z,66.31
2022-09-14T09:59:35.447Z,61.65
2022-09-14T10:02:27.895Z,62.51
2022-09-14T10:05:04.214Z,61.88
2022-09-14T10:07:35.961Z,64.91
2022-09-14T10:10:08.417Z,65.13
2022-09-14T10:12:38.953Z,63.94
2022-09-14T10:15:21.699Z,60.72
2022-09-14T10:18:18.712Z,60.47
2022-09-14T10:21:08.280Z,62.03
2022-09-14T10:23:38.712Z,62.48
2022-09-14T10:26:28.724Z,61.20
2022-09-14T10:29:26.401Z,61.92
2022-09-14T10:32:00.468Z,58.66
2022-09-14T10:34:29.996Z,59.33
2022-09-14T10:37:15.249Z,55.72
2022-09-14T10:39:52.004Z,57.43
2022-09-14T10:42:28.959Z,57.75
2022-09-14T10:45:10.420Z,58.31
2022-09-14T10:48:20.785Z,59.33
2022-09-14T10:50:59.336Z,58.49
2022-09-14T10:53:42.646Z,50.96
2022-09-14T10:56:20.160Z,53.42
2022-09-14T10:59:16.945Z,47.49
2022-09-14T11:02:20.407Z,44.68
2022-09-14T11:05:05.550Z,48.75
2022-09-14T11:07:40.366Z,49.25
2022-09-14T11:10:20.881Z,45.02
2022-09-14T11:13:04.017Z,46.42
2022-09-14T11:15:42.114Z,44.72
2022-09-14T11:18:21.792Z,41.73
2022-09-14T11:21:02.464Z,45.16
2022-09-14T11:23:42.496Z,45.60
2022-09-14T11:26:17.597Z,47.06
2022-09-14T11:28:51.476Z,46.76
2022-09-14T11:31:26.635Z,50.76
2022-09-14T11:34:00.532Z,43.63
2022-09-14T11:36:31.933Z,42.70
2022-09-14T11:39:07.285Z,41.05
2022-09-14T11:41:44.593Z,43.49
2022-09-14T11:44:18.862Z,41.73
2022-09-14T11:46:52.074Z,39.07
2022-09-14T11:49:31.001Z,38.61
2022-09-14T11:52:05.141Z,39.26
2022-09-14T11:54:34.020Z,42.81
2022-09-14T11:57:05.733Z,43.50
2022-09-14T11:59:53.181Z,42.18
2022-09-14T12:02:54.816Z,39.35
2022-09-14T12:05:33.505Z,42.17
2022-09-14T12:08:44.848Z,42.54
2022-09-14T12:11:32.071Z,41.41
2022-09-14T12:14:36.706Z,39.68
2022-09-14T12:17:22.776Z,40.96
2022-09-14T12:20:01.405Z,39.37
2022-09-14T12:22:35.902Z,41.11
2022-09-14T12:25:18.051Z,36.26
2022-09-14T12:27:50.118Z,39.03
2022-09-14T12:31:10.665Z,34.66
2022-09-14T12:34:27.283Z,35.64
2022-09-14T12:37:32.818Z,34.33
2022-09-14T12:40:36.634Z,34.21
2022-09-14T12:43:47.900Z,36.01
2022-09-14T12:46:36.868Z,36.22
2022-09-14T12:49:29.677Z,34.20
2022-09-14T12:52:00.818Z,33.76
2022-09-14T12:54:43.038Z,34.94
2022-09-14T12:57:28.025Z,35.00
2022-09-14T13:00:06.337Z,39.43
2022-09-14T13:03:09.750Z,40.23
2022-09-14T13:05:39.051Z,44.47
2022-09-14T13:08:12.766Z,41.60
2022-09-14T13:10:47.468Z,44.05
2022-09-14T13:13:19.297Z,45.54
2022-09-14T13:15:59.422Z,47.98
2022-09-14T13:18:36.075Z,50.54
2022-09-14T13:21:18.416Z,52.84
2022-09-14T13:23:47.588Z,54.39
2022-09-14T13:26:21.388Z,51.87
2022-09-14T13:28:52.429Z,53.29
2022-09-14T13:31:28.567Z,56.40
2022-09-14T13:33:59.256Z,53.48
2022-09-14T13:36:30.838Z,56.97
2022-09-14T13:39:01.712Z,56.36
2022-09-14T13:41:32.632Z,56.43
2022-09-14T13:44:01.889Z,58.70
2022-09-14T13:46:30.934Z,55.34
2022-09-14T13:49:02.596Z,57.58
2022-09-14T13:51:31.648Z,58.88
2022-09-14T13:54:18.457Z,59.17
2022-09-14T13:56:47.825Z,60.19
2022-09-14T13:59:22.005Z,58.95
2022-09-14T14:01:57.558Z,56.74
2022-09-14T14:04:35.816Z,57.51
2022-09-14T14:07:09.644Z,60.06
2022-09-14T14:09:47.164Z,62.89
2022-09-14T14:12:24.892Z,61.61
2022-09-14T14:15:01.918Z,64.18
2022-09-14T14:17:37.027Z,61.18
2022-09-14T14:20:36.398Z,62.27
2022-09-14T14:23:22.848Z,63.17
2022-09-14T14:25:54.540Z,59.54
2022-09-14T14:28:29.248Z,58.69
2022-09-14T14:30:59.728Z,60.76
2022-09-14T14:33:28.625Z,62.32
2022-09-14T14:35:59.024Z,62.57
2022-09-14T14:38:27.878Z,65.03
2022-09-14T14:40:58.234Z,62.91
2022-09-14T14:43:28.518Z,62.13
2022-09-14T14:46:00.895Z,63.18
2022-09-14T14:48:31.618Z,66.32
2022-09-14T14:51:02.198Z,61.24
2022-09-14T14:53:30.920Z,62.10
2022-09-14T14:55:59.767Z,62.82
2022-09-14T14:58:29.414Z,64.78
2022-09-14T15:00:58.501Z,61.88
2022-09-14T15:03:27.636Z,62.56
2022-09-14T15:05:56.538Z,66.02
2022-09-14T15:08:26.917Z,64.52
2022-09-14T15:10:58.433Z,63.47
2022-09-14T15:13:27.342Z,62.63
2022-09-14T15:15:56.264Z,66.21
2022-09-14T15:18:25.089Z,63.81
2022-09-14T15:20:53.975Z,63.86
2022-09-14T15:23:22.809Z,64.79
2022-09-14T15:25:54.346Z,66.91
2022-09-14T15:28:23.549Z,66.55
2022-09-14T15:30:53.191Z,69.35
2022-09-14T15:33:22.051Z,67.23
2022-09-14T15:35:56.500Z,68.50
2022-09-14T15:38:25.610Z,68.23
2022-09-14T15:40:55.850Z,70.66
2022-09-14T15:43:24.710Z,70.83
2022-09-14T15:45:53.638Z,71.96
2022-09-14T15:48:22.752Z,72.27
2022-09-14T15:50:51.545Z,74.14
2022-09-14T15:53:20.408Z,73.91
2022-09-14T15:55:49.188Z,74.43
2022-09-14T15:58:19.405Z,72.89
2022-09-14T16:00:48.367Z,73.83
2022-09-14T16:03:17.335Z,72.04
2022-09-14T16:05:46.333Z,73.43
2022-09-14T16:08:15.142Z,72.24
2022-09-14T16:10:44.173Z,74.17
2022-09-14T16:13:13.279Z,74.51
2022-09-14T16:15:43.547Z,74.37
2022-09-14T16:18:12.482Z,74.00
2022-09-14T16:20:41.411Z,74.13
2022-09-14T16:23:10.806Z,75.37
2022-09-14T16:25:40.905Z,75.81
2022-09-14T16:28:09.809Z,77.84
2022-09-14T16:30:38.627Z,77.92
2022-09-14T16:33:08.935Z,79.99
2022-09-14T16:35:38.045Z,79.93
2022-09-14T16:38:06.809Z,81.33
2022-09-14T16:40:41.056Z,88.65
2022-09-14T16:43:11.618Z,86.67
2022-09-14T16:45:41.065Z,86.43
2022-09-14T16:48:11.340Z,90.55
2022-09-14T16:50:40.227Z,91.57
2022-09-14T16:53:09.124Z,90.65
2022-09-14T16:55:37.963Z,92.01
2022-09-14T16:58:06.750Z,95.19
2022-09-14T17:00:36.543Z,97.89
2022-09-14T17:03:05.524Z,100.00
2022-09-14T17:05:35.828Z,99.83
2022-09-14T17:08:04.719Z,100.00
2022-09-14T17:10:35.859Z,100.00
2022-09-14T17:13:04.656Z,100.00
2022-09-14T17:15:33.347Z,100.00
2022-09-14T17:18:02.148Z,100.00
2022-09-14T17:20:30.870Z,100.00
2022-09-14T17:23:01.048Z,100.00
2022-09-14T17:25:30.082Z,100.00
2022-09-14T17:27:59.062Z,100.00
2022-09-14T17:30:27.859Z,100.00
2022-09-14T17:32:56.664Z,100.00
2022-09-14T17:35:25.568Z,100.00
2022-09-14T17:37:54.489Z,100.00
2022-09-14T17:40:24.793Z,100.00
2022-09-14T17:42:54.042Z,100.00
2022-09-14T17:45:22.983Z,100.00
2022-09-14T17:47:51.911Z,100.00
2022-09-14T17:50:21.297Z,100.00
2022-09-14T17:52:50.115Z,100.00
2022-09-14T17:55:19.576Z,100.00
2022-09-14T17:57:50.061Z,100.00
2022-09-14T18:00:19.345Z,100.00
2022-09-14T18:02:52.105Z,100.00
2022-09-14T18:05:21.000Z,100.00
2022-09-14T18:07:49.800Z,100.00
2022-09-14T18:10:19.388Z,100.00
2022-09-14T18:12:50.322Z,100.00
2022-09-14T18:15:19.517Z,100.00
2022-09-14T18:17:48.612Z,100.00
2022-09-14T18:20:17.508Z,100.00
2022-09-14T18:22:46.333Z,100.00
2022-09-14T18:25:15.210Z,100.00
2022-09-14T18:27:44.265Z,100.00
2022-09-14T18:30:15.283Z,100.00
2022-09-14T18:32:46.385Z,100.00
2022-09-14T18:35:16.877Z,100.00
2022-09-14T18:37:45.749Z,100.00
2022-09-14T18:40:18.253Z,100.00
2022-09-14T18:42:49.332Z,100.00
2022-09-14T18:45:19.735Z,100.00
2022-09-14T18:47:48.668Z,100.00
2022-09-14T18:50:19.310Z,100.00
2022-09-14T18:52:48.215Z,100.00
2022-09-14T18:55:17.316Z,100.00
2022-09-14T18:57:47.350Z,100.00
2022-09-14T19:00:18.764Z,100.00
2022-09-14T19:02:54.448Z,100.00
2022-09-14T19:05:24.542Z,100.00
2022-09-14T19:07:53.575Z,100.00
2022-09-14T19:10:22.964Z,100.00
2022-09-14T19:12:51.789Z,100.00
2022-09-14T19:15:20.641Z,100.00
2022-09-14T19:17:49.453Z,100.00
2022-09-14T19:20:22.417Z,100.00
2022-09-14T19:22:52.413Z,100.00
2022-09-14T19:25:21.433Z,100.00
2022-09-14T19:27:50.924Z,100.00
2022-09-14T19:30:20.045Z,100.00
2022-09-14T19:32:48.837Z,100.00
2022-09-14T19:35:17.893Z,100.00
2022-09-14T19:37:48.114Z,100.00
2022-09-14T19:40:17.020Z,100.00
2022-09-14T19:42:45.883Z,100.00
2022-09-14T19:45:16.619Z,100.00
2022-09-14T19:47:45.363Z,100.00
2022-09-14T19:50:14.128Z,100.00
2022-09-14T19:52:42.913Z,100.00
2022-09-14T19:55:13.150Z,100.00
2022-09-14T19:57:41.995Z,100.00
2022-09-14T20:00:16.247Z,100.00
2022-09-14T20:02:46.884Z,100.00
2022-09-14T20:05:16.054Z,100.00
2022-09-14T20:07:45.269Z,100.00
2022-09-14T20:10:15.887Z,100.00
2022-09-14T20:12:44.713Z,100.00
2022-09-14T20:15:13.584Z,100.00
2022-09-14T20:17:42.446Z,100.00
2022-09-14T20:20:12.029Z,100.00
2022-09-14T20:22:42.490Z,100.00
2022-09-14T20:25:11.289Z,100.00
2022-09-14T20:27:41.531Z,100.00
2022-09-14T20:30:11.456Z,100.00
2022-09-14T20:32:40.214Z,100.00
2022-09-14T20:35:09.956Z,100.00
2022-09-14T20:37:39.195Z,100.00
2022-09-14T20:40:10.000Z,100.00
2022-09-14T20:42:40.699Z,100.00
2022-09-14T20:45:10.973Z,100.00
2022-09-14T20:47:39.851Z,100.00
2022-09-14T20:50:09.284Z,100.00
2022-09-14T20:52:38.113Z,100.00
2022-09-14T20:55:08.293Z,100.00
2022-09-14T20:57:36.931Z,100.00
2022-09-14T21:00:08.652Z,100.00
2022-09-14T21:02:37.759Z,100.00
2022-09-14T21:05:08.035Z,100.00
2022-09-14T21:07:45.489Z,100.00
2022-09-14T21:10:14.398Z,100.00
2022-09-14T21:12:43.119Z,100.00
2022-09-14T21:15:13.460Z,100.00
2022-09-14T21:17:42.277Z,100.00
2022-09-14T21:20:11.415Z,100.00
2022-09-14T21:22:40.185Z,100.00
2022-09-14T21:25:11.585Z,100.00
2022-09-14T21:27:40.297Z,100.00
2022-09-14T21:30:10.337Z,100.00
2022-09-14T21:32:40.610Z,100.00
2022-09-14T21:35:10.098Z,100.00
2022-09-14T21:37:38.808Z,100.00
2022-09-14T21:40:09.098Z,100.00
2022-09-14T21:42:39.250Z,100.00
2022-09-14T21:45:08.772Z,100.00
2022-09-14T21:47:37.472Z,100.00
2022-09-14T21:50:08.795Z,100.00
2022-09-14T21:52:44.056Z,100.00
2022-09-14T21:55:13.747Z,100.00
2022-09-14T21:57:42.429Z,100.00
2022-09-14T22:00:12.178Z,100.00
2022-09-14T22:02:41.103Z,100.00
2022-09-14T22:05:12.199Z,100.00
2022-09-14T22:07:42.428Z,100.00
2022-09-14T22:10:11.674Z,100.00
2022-09-14T22:12:40.649Z,100.00
2022-09-14T22:15:10.385Z,100.00
2022-09-14T22:17:39.029Z,100.00
2022-09-14T22:20:09.071Z,100.00
2022-09-14T22:22:39.477Z,100.00
2022-09-14T22:25:08.881Z,100.00
2022-09-14T22:27:40.942Z,100.00
2022-09-14T22:30:11.383Z,100.00
2022-09-14T22:32:40.197Z,100.00
2022-09-14T22:35:09.793Z,100.00
2022-09-14T22:37:39.968Z,100.00
2022-09-14T22:40:09.761Z,100.00
2022-09-14T22:42:38.882Z,100.00
2022-09-14T22:45:08.575Z,100.00
2022-09-14T22:47:37.438Z,100.00
2022-09-14T22:50:06.973Z,100.00
2022-09-14T22:52:35.740Z,100.00
2022-09-14T22:55:06.690Z,100.00
2022-09-14T22:57:35.455Z,100.00
2022-09-14T23:00:05.707Z,100.00
2022-09-14T23:02:34.684Z,100.00
2022-09-14T23:05:04.025Z,100.00
2022-09-14T23:07:33.110Z,100.00
2022-09-14T23:10:01.872Z,100.00
2022-09-14T23:12:34.375Z,100.00
2022-09-14T23:15:03.257Z,100.00
2022-09-14T23:17:33.228Z,100.00
2022-09-14T23:20:02.094Z,100.00
2022-09-14T23:22:32.672Z,100.00
2022-09-14T23:25:01.484Z,100.00
2022-09-14T23:27:33.673Z,100.00
2022-09-14T23:30:02.595Z,100.00
2022-09-14T23:32:33.249Z,100.00
2022-09-14T23:35:02.255Z,100.00
2022-09-14T23:37:32.011Z,100.00
2022-09-14T23:40:00.816Z,100.00
2022-09-14T23:42:29.606Z,100.00
2022-09-14T23:44:59.723Z,100.00
2022-09-14T23:47:28.440Z,100.00
2022-09-14T23:49:57.254Z,100.00
2022-09-14T23:52:26.171Z,100.00
2022-09-14T23:54:55.302Z,100.00
2022-09-14T23:57:24.129Z,100.00
2022-09-14T23:59:52.786Z,100.00
